Have a Safe July 4th! 

Flight Track Log - Related Links

Times and Time Zones

All times are in EDT time to prevent confusion due to time zone crossing. See the XOJ552 flight status page for this flight to view local times or setup timezone preferences in your user account.

Time Position Orientation Groundspeed Altitude Reporting Facility
EDT Latitude Longitude Course Direction KTS MPH feet Rate Location/Type
Thu 05:03:35 PM 34.1833 -118.4833 279° West 181 208 2,100  Level Southern California TRACON
Thu 05:05:56 PM 34.1969 -118.5842 279° West 244 281 10,000 3,044 Climbing Los Angeles Center
Thu 05:06:58 PM 34.2681 -118.5972 351° North 267 307 12,400 1,790 Climbing Los Angeles Center
Thu 05:08:00 PM 34.3569 -118.6408 338° Northwest 347 399 13,700 1,839 Climbing Los Angeles Center
Thu 05:09:02 PM 34.4575 -118.6875 339° North 387 445 16,200 2,419 Climbing Los Angeles Center
Thu 05:10:04 PM 34.5614 -118.7397 338° Northwest 403 464 18,700 2,661 Climbing Los Angeles Center
Thu 05:11:06 PM 34.6869 -118.8064 336° Northwest 413 475 21,700 2,640 Climbing Los Angeles Center
Thu 05:12:09 PM 34.7906 -118.8572 338° Northwest 406 467 24,200 2,256 Climbing Los Angeles Center
Thu 05:13:11 PM 34.9094 -118.8933 346° North 412 474 26,400 2,081 Climbing Los Angeles Center
Thu 05:14:13 PM 35.0239 -118.9278 346° North 423 487 28,500 1,790 Climbing Los Angeles Center
Thu 05:15:15 PM 35.1422 -118.9631 346° North 437 503 30,100 1,500 Climbing Los Angeles Center
Thu 05:16:17 PM 35.2669 -118.9969 347° North 459 528 31,600 1,452 Climbing Los Angeles Center
Thu 05:17:19 PM 35.3931 -119.0347 346° North 468 539 33,100 1,597 Climbing Los Angeles Center
Thu 05:18:21 PM 35.5439 -119.0786 347° North 468 539 34,900 1,597 Climbing Los Angeles Center
Thu 05:19:23 PM 35.6700 -119.1169 346° North 469 540 36,400 1,392 Climbing Los Angeles Center
Thu 05:20:26 PM 35.7939 -119.1533 347° North 464 534 37,800 1,248 Climbing Los Angeles Center
Thu 05:21:28 PM 35.9194 -119.1903 347° North 464 534 39,000 1,307 Climbing Los Angeles Center
Thu 05:22:07 PM 36.0144 -119.2189 346° North 459 528 40,000 1,260 Climbing Oakland Center
Thu 05:23:08 PM 36.1350 -119.2544 347° North 452 520 41,100 927 Climbing Oakland Center
Thu 05:24:10 PM 36.2544 -119.2908 346° North 445 512 41,900 634 Climbing Oakland Center
Thu 05:25:11 PM 36.3736 -119.3258 347° North 442 509 42,400 488 Climbing Oakland Center
Thu 05:26:13 PM 36.4931 -119.3619 346° North 444 511 42,900 293 Climbing Oakland Center
Thu 05:27:14 PM 36.6136 -119.3986 346° North 446 513 43,000 49 Climbing Oakland Center
Thu 05:28:16 PM 36.7378 -119.4361 346° North 458 527 43,000  Level Oakland Center
Thu 05:29:17 PM 36.8633 -119.4761 346° North 466 536 43,000  Level Oakland Center
Thu 05:30:19 PM 37.0164 -119.5228 346° North 472 543 43,000  Level Oakland Center
Thu 05:31:20 PM 37.1450 -119.5619 346° North 475 547 43,000  Level Oakland Center
Thu 05:32:22 PM 37.2750 -119.6025 346° North 480 552 43,000  Level Oakland Center
Thu 05:33:23 PM 37.4119 -119.6450 346° North 476 548 43,000  Level Oakland Center
Thu 05:34:25 PM 37.5425 -119.6853 346° North 481 554 43,000  Level Oakland Center
Thu 05:35:26 PM 37.6739 -119.7267 346° North 485 558 43,000  Level Oakland Center
Thu 05:36:28 PM 37.8053 -119.7683 346° North 487 560 43,000  Level Oakland Center
Thu 05:37:29 PM 37.9369 -119.8081 347° North 487 560 43,000  Level Oakland Center
Thu 05:38:31 PM 38.0681 -119.8506 346° North 488 562 43,000  Level Oakland Center
Thu 05:39:32 PM 38.2017 -119.8922 346° North 491 565 43,000  Level Oakland Center
Thu 05:40:34 PM 38.3606 -119.9417 346° North 492 566 43,000  Level Oakland Center
Thu 05:41:35 PM 38.4925 -119.9842 346° North 491 565 43,000  Level Oakland Center
Thu 05:42:37 PM 38.6258 -120.0272 346° North 494 568 43,000  Level Oakland Center
Thu 05:43:39 PM 38.7575 -120.0686 346° North 492 566 43,000  Level Oakland Center
Thu 05:44:40 PM 38.8922 -120.1122 346° North 497 572 43,000  Level Oakland Center
Thu 05:45:42 PM 39.0267 -120.1553 346° North 499 574 43,000  Level Oakland Center
Thu 05:46:43 PM 39.1611 -120.1986 346° North 500 575 43,000  Level Oakland Center
Thu 05:47:45 PM 39.3228 -120.2528 345° North 501 577 43,000  Level Oakland Center
Thu 05:48:46 PM 39.4569 -120.2969 346° North 501 577 43,000  Level Oakland Center
Thu 05:49:48 PM 39.5917 -120.3419 346° North 501 577 43,000  Level Oakland Center
Thu 05:50:49 PM 39.7261 -120.3861 346° North 501 577 43,000  Level Oakland Center
Thu 05:51:51 PM 39.8589 -120.4294 346° North 496 571 43,000  Level Oakland Center
Thu 05:52:53 PM 39.9922 -120.4750 345° North 496 571 43,000  Level Oakland Center
Thu 05:53:54 PM 40.1306 -120.5189 346° North 498 573 43,000  Level Oakland Center
Thu 05:54:56 PM 40.2650 -120.5642 346° North 500 575 43,000  Level Oakland Center
Thu 05:55:57 PM 40.4236 -120.6172 346° North 494 568 43,000  Level Oakland Center
Thu 05:56:59 PM 40.5594 -120.6656 345° North 499 574 43,000  Level Oakland Center
Thu 05:58:00 PM 40.6922 -120.7094 346° North 496 571 43,000  Level Oakland Center
Thu 05:59:02 PM 40.8228 -120.7539 346° North 489 563 43,000  Level Oakland Center
Thu 06:00:03 PM 40.9533 -120.7986 345° North 485 558 43,000  Level Oakland Center
Thu 06:01:05 PM 41.0839 -120.8461 345° North 488 562 43,000  Level Oakland Center
Thu 06:02:09 PM 41.2172 -120.8917 346° North 491 565 43,000  Level Seattle Center
Thu 06:03:10 PM 41.3756 -120.9478 345° North 494 568 43,000  Level Seattle Center
Thu 06:04:11 PM 41.5067 -120.9936 345° North 490 564 43,000  Level Seattle Center
Thu 06:05:12 PM 41.6378 -121.0394 345° North 491 565 43,000  Level Seattle Center
Thu 06:06:13 PM 41.7678 -121.0867 345° North 484 557 43,000  Level Seattle Center
Thu 06:07:14 PM 41.9000 -121.1331 345° North 491 565 43,000  Level Seattle Center
Thu 06:08:15 PM 42.0297 -121.1778 346° North 487 560 43,000  Level Seattle Center
Thu 06:09:16 PM 42.1600 -121.2253 345° North 489 563 43,000  Level Seattle Center
Thu 06:10:17 PM 42.2906 -121.2714 345° North 488 562 43,000  Level Seattle Center
Thu 06:11:19 PM 42.4458 -121.3283 345° North 485 558 43,000  Level Seattle Center
Thu 06:12:20 PM 42.5744 -121.3733 346° North 483 556 43,000  Level Seattle Center
Thu 06:13:21 PM 42.7042 -121.4211 345° North 485 558 43,000  Level Seattle Center
Thu 06:14:22 PM 42.8328 -121.4686 345° North 483 556 43,000  Level Seattle Center
Thu 06:15:23 PM 42.9628 -121.5158 345° North 484 557 43,000  Level Seattle Center
Thu 06:16:24 PM 43.0942 -121.5628 345° North 487 560 43,000  Level Seattle Center
Thu 06:17:25 PM 43.2247 -121.6122 345° North 488 562 43,000  Level Seattle Center
Thu 06:18:26 PM 43.3558 -121.6617 345° North 489 563 43,000  Level Seattle Center
Thu 06:19:27 PM 43.4864 -121.7119 344° North 490 564 43,000  Level Seattle Center
Thu 06:20:28 PM 43.6167 -121.7608 345° North 487 560 43,000  Level Seattle Center
Thu 06:21:30 PM 43.7744 -121.8203 345° North 489 563 43,000  Level Seattle Center
Thu 06:22:31 PM 43.8983 -121.8669 345° North 497 572 43,000  Level Seattle Center
Thu 06:23:32 PM 44.0464 -121.9194 346° North 498 573 43,000  Level Seattle Center
Thu 06:24:33 PM 44.1789 -121.9697 345° North 497 572 43,000  Level Seattle Center
Thu 06:25:34 PM 44.3047 -122.0458 337° Northwest 498 573 43,000  Level Seattle Center
Thu 06:26:35 PM 44.4169 -122.1528 326° Northwest 491 565 43,000  Level Seattle Center
Thu 06:27:36 PM 44.5319 -122.2553 328° Northwest 492 566 43,000  Level Seattle Center
Thu 06:28:37 PM 44.6461 -122.3603 327° Northwest 493 567 43,000  Level Seattle Center
Thu 06:29:38 PM 44.7600 -122.4614 328° Northwest 489 563 43,000  Level Seattle Center
Thu 06:30:40 PM 44.8706 -122.5586 328° Northwest 485 558 43,000  Level Seattle Center
Thu 06:31:41 PM 45.0069 -122.6753 329° Northwest 485 558 43,000  Level Seattle Center
Thu 06:32:42 PM 45.1428 -122.7044 351° North 497 572 43,000  Level Seattle Center
Thu 06:33:43 PM 45.2753 -122.7117 358° North 485 558 43,000  Level Seattle Center
Thu 06:34:44 PM 45.4031 -122.6608 16° North 480 552 43,000  Level Seattle Center
Thu 06:35:45 PM 45.5322 -122.6078 16° North 483 556 43,000 -836 Level Seattle Center
Thu 06:36:46 PM 45.6694 -122.5878 North 504 580 41,300 -1,967 Descending Seattle Center
Thu 06:37:47 PM 45.7906 -122.6764 333° Northwest 498 573 39,000 -1,317 Descending Seattle Center
Thu 06:38:49 PM 45.8844 -122.8039 317° Northwest 476 548 38,600 -1,415 Descending Seattle Center
Thu 06:39:50 PM 45.9794 -122.9314 317° Northwest 471 542 36,100 -2,656 Descending Seattle Center
Thu 06:40:51 PM 46.0900 -123.0850 316° Northwest 466 536 33,200 -2,754 Descending Seattle Center
Thu 06:41:52 PM 46.1858 -123.2172 316° Northwest 474 545 30,500 -2,705 Descending Seattle Center
Thu 06:42:53 PM 46.3106 -123.2781 341° North 496 571 27,700 -2,803 Descending Seattle Center
Thu 06:43:54 PM 46.4378 -123.2100 20° North 492 566 24,800 -3,000 Descending Seattle Center
Thu 06:44:55 PM 46.5694 -123.1342 22° Northeast 471 542 21,600 -3,073 Descending Seattle Center
Thu 06:45:57 PM 46.6817 -123.0714 21° North 443 510 18,500 -2,976 Descending Seattle Center
Thu 06:46:58 PM 46.7889 -123.0047 23° Northeast 400 460 15,500 -2,361 Descending Seattle Center
Thu 06:47:59 PM 46.8844 -122.9503 21° North 364 419 13,700 -1,782 Descending Seattle Center
Thu 06:48:39 PM 46.9444 -122.9183 20° North 329 379 12,500 -1,660 Descending Seattle Center
Thu 06:49:33 PM 47.0117 -122.8500 35° Northeast 306 352 11,100 -1,252 Descending Seattle Center
Thu 06:50:34 PM 47.0739 -122.7711 41° Northeast 294 338 10,100 -492 Descending Seattle Center
Thu 06:51:35 PM 47.1364 -122.6922 41° Northeast 298 343 10,100 -422 Level Seattle Center
Thu 06:52:42 PM 47.2086 -122.6008 41° Northeast 295 339 9,200 -1,152 Descending Seattle Center
Thu 06:54:06 PM 47.2925 -122.4911 42° Northeast 292 336 7,200 -1,448 Descending Seattle Center
Thu 06:54:38 PM 47.3153 -122.4417 56° Northeast 289 333 6,400 -1,419 Descending Seattle Center
Thu 06:55:39 PM 47.3347 -122.3264 76° East 290 334 5,000 -1,075 Descending Seattle Center
Thu 06:56:52 PM 47.3653 -122.2017 70° East 256 295 4,000 -896 Descending Seattle Center
Thu 06:57:53 PM 47.4189 -122.2111 353° North 218 251 3,000 -1,212 Descending Seattle Center
Thu 06:58:36 PM 47.4517 -122.2356 333° Northwest 183 211 1,900 -1,291 Descending Seattle Center
Thu 06:59:12 PM 47.4753 -122.2578 328° Northwest 166 191 1,300 -928 Descending Seattle Center
Thu 07:00:13 PM 47.5067 -122.2839 331° Northwest 131 151 400 -590 Descending Seattle Center
Thu 07:01:14 PM 47.5306 -122.3042 330° Northwest 126 145 100 -295 Descending Seattle Center

Login

Don't have an account? Register now (free) for customized features, flight alerts, and more!